createdAt,value
2022-10-31T00:02:47.945Z,15.10
2022-10-31T00:06:50.791Z,15.00
2022-10-31T00:10:53.619Z,15.00
2022-10-31T00:14:57.842Z,15.00
2022-10-31T00:19:01.658Z,15.00
2022-10-31T00:23:05.135Z,14.90
2022-10-31T00:27:07.979Z,14.90
2022-10-31T00:31:12.927Z,14.90
2022-10-31T00:35:16.055Z,14.90
2022-10-31T00:39:18.912Z,14.80
2022-10-31T00:43:22.817Z,14.80
2022-10-31T00:47:28.865Z,14.80
2022-10-31T00:51:31.713Z,14.80
2022-10-31T00:55:34.812Z,14.80
2022-10-31T00:59:37.666Z,14.80
2022-10-31T01:03:41.951Z,14.80
2022-10-31T01:07:44.827Z,14.80
2022-10-31T01:11:47.685Z,14.80
2022-10-31T01:15:55.572Z,14.80
2022-10-31T01:19:59.809Z,14.80
2022-10-31T01:24:03.891Z,14.70
2022-10-31T01:28:06.715Z,14.70
2022-10-31T01:32:09.573Z,14.70
2022-10-31T01:36:25.032Z,14.70
2022-10-31T01:40:31.029Z,14.60
2022-10-31T01:44:53.907Z,14.60
2022-10-31T01:48:57.600Z,14.60
2022-10-31T01:53:02.570Z,14.50
2022-10-31T01:57:06.325Z,14.50
2022-10-31T02:01:09.269Z,14.40
2022-10-31T02:05:14.620Z,14.40
2022-10-31T02:09:19.561Z,14.40
2022-10-31T02:13:23.105Z,14.40
2022-10-31T02:17:26.109Z,14.30
2022-10-31T02:21:34.081Z,14.30
2022-10-31T02:25:44.668Z,14.30
2022-10-31T02:29:54.687Z,14.20
2022-10-31T02:34:01.141Z,14.10
2022-10-31T02:38:15.458Z,14.00
2022-10-31T02:42:20.285Z,14.00
2022-10-31T02:46:26.790Z,13.90
2022-10-31T02:50:33.164Z,13.80
2022-10-31T02:54:36.061Z,13.80
2022-10-31T02:58:40.094Z,13.80
2022-10-31T03:02:47.983Z,13.70
2022-10-31T03:06:55.827Z,13.60
2022-10-31T03:10:59.853Z,13.60
2022-10-31T03:15:08.641Z,13.50
2022-10-31T03:19:13.257Z,13.50
2022-10-31T03:23:18.197Z,13.50
2022-10-31T03:27:24.049Z,13.50
2022-10-31T03:31:29.764Z,13.40
2022-10-31T03:35:33.371Z,13.40
2022-10-31T03:39:38.479Z,13.30
2022-10-31T03:43:43.904Z,13.30
2022-10-31T03:47:46.787Z,13.30
2022-10-31T03:51:53.745Z,13.20
2022-10-31T03:56:01.481Z,13.20
2022-10-31T04:00:06.619Z,13.10
2022-10-31T04:04:10.159Z,13.10
2022-10-31T04:08:15.277Z,13.00
2022-10-31T04:12:19.913Z,13.00
2022-10-31T04:16:23.425Z,12.90
2022-10-31T04:20:31.657Z,12.90
2022-10-31T04:24:34.535Z,12.80
2022-10-31T04:28:38.783Z,12.80
2022-10-31T04:32:42.715Z,12.70
2022-10-31T04:36:45.560Z,12.70
2022-10-31T04:40:48.409Z,12.70
2022-10-31T04:44:52.625Z,12.60
2022-10-31T04:48:55.581Z,12.60
2022-10-31T04:52:58.445Z,12.50
2022-10-31T04:57:01.279Z,12.50
2022-10-31T05:01:05.548Z,12.50
2022-10-31T05:05:08.889Z,12.40
2022-10-31T05:09:11.757Z,12.30
2022-10-31T05:13:15.734Z,12.30
2022-10-31T05:17:20.971Z,12.20
2022-10-31T05:21:23.797Z,12.20
2022-10-31T05:25:27.629Z,12.10
2022-10-31T05:29:34.301Z,12.10
2022-10-31T05:33:38.489Z,12.10
2022-10-31T05:37:41.681Z,12.10
2022-10-31T05:41:50.445Z,12.10
2022-10-31T05:45:56.568Z,12.00
2022-10-31T05:50:00.793Z,11.90
2022-10-31T05:54:03.641Z,11.80
2022-10-31T05:58:11.994Z,11.80
2022-10-31T06:02:14.810Z,11.70
2022-10-31T06:06:19.093Z,11.60
2022-10-31T06:10:22.372Z,11.60
2022-10-31T06:14:25.330Z,11.50
2022-10-31T06:18:28.198Z,11.50
2022-10-31T06:22:32.427Z,11.50
2022-10-31T06:26:35.252Z,11.40
2022-10-31T06:30:38.099Z,11.50
2022-10-31T06:34:41.896Z,11.40
2022-10-31T06:38:46.098Z,11.40
2022-10-31T06:42:49.023Z,11.40
2022-10-31T06:46:51.895Z,11.40
2022-10-31T06:50:59.403Z,11.40
2022-10-31T06:55:03.899Z,11.40
2022-10-31T06:59:06.743Z,11.40
2022-10-31T07:03:12.463Z,11.40
2022-10-31T07:07:15.562Z,11.50
2022-10-31T07:11:19.761Z,11.50
2022-10-31T07:15:22.631Z,11.60
2022-10-31T07:19:25.571Z,11.60
2022-10-31T07:23:28.529Z,11.70
2022-10-31T07:27:40.127Z,11.70
2022-10-31T07:31:47.556Z,11.80
2022-10-31T07:35:50.431Z,11.90
2022-10-31T07:39:53.284Z,12.00
2022-10-31T07:43:57.587Z,12.10
2022-10-31T07:48:00.698Z,12.20
2022-10-31T07:52:03.747Z,12.30
2022-10-31T07:56:06.751Z,12.40
2022-10-31T08:00:12.110Z,12.50
2022-10-31T08:04:14.985Z,12.60
2022-10-31T08:08:18.529Z,12.70
2022-10-31T08:12:21.423Z,12.90
2022-10-31T08:16:25.681Z,13.10
2022-10-31T08:20:28.536Z,13.40
2022-10-31T08:24:31.389Z,13.60
2022-10-31T08:28:34.389Z,13.90
2022-10-31T08:32:38.575Z,14.20
2022-10-31T08:36:41.408Z,14.40
2022-10-31T08:40:44.258Z,14.70
2022-10-31T08:44:47.085Z,14.90
2022-10-31T08:48:51.406Z,15.00
2022-10-31T08:53:06.433Z,15.10
2022-10-31T08:57:09.528Z,15.10
2022-10-31T09:01:12.554Z,15.20
2022-10-31T09:05:17.013Z,15.30
2022-10-31T09:09:19.864Z,15.40
2022-10-31T09:13:27.361Z,15.50
2022-10-31T09:17:31.135Z,15.60
2022-10-31T09:21:35.366Z,15.80
2022-10-31T09:25:38.564Z,15.90
2022-10-31T09:29:41.433Z,16.10
2022-10-31T09:33:44.288Z,16.40
2022-10-31T09:37:48.476Z,17.00
2022-10-31T09:41:57.838Z,17.60
2022-10-31T09:46:03.959Z,18.50
2022-10-31T09:50:16.014Z,19.30
2022-10-31T09:54:21.560Z,19.50
2022-10-31T09:58:26.831Z,20.10
2022-10-31T10:02:32.882Z,20.70
2022-10-31T10:06:37.161Z,21.20
2022-10-31T10:10:48.383Z,21.50
2022-10-31T10:15:03.488Z,21.90
2022-10-31T10:19:14.395Z,22.00
2022-10-31T10:23:25.741Z,22.30
2022-10-31T10:27:35.668Z,22.40
2022-10-31T10:31:40.776Z,22.30
2022-10-31T10:35:45.997Z,22.10
2022-10-31T10:39:52.306Z,22.00
2022-10-31T10:43:56.628Z,22.00
2022-10-31T10:48:01.417Z,22.10
2022-10-31T10:56:43.280Z,22.40
2022-10-31T11:00:48.543Z,22.40
2022-10-31T11:04:53.070Z,22.30
2022-10-31T11:08:55.958Z,22.20
2022-10-31T11:13:01.232Z,22.20
2022-10-31T11:17:11.972Z,22.20
2022-10-31T11:21:22.377Z,22.20
2022-10-31T11:25:25.818Z,22.10
2022-10-31T11:29:28.688Z,21.90
2022-10-31T11:33:34.774Z,21.80
2022-10-31T11:37:42.305Z,21.70
2022-10-31T11:41:45.541Z,21.70
2022-10-31T11:45:48.667Z,21.70
2022-10-31T11:49:53.112Z,21.80
2022-10-31T11:54:00.168Z,21.80
2022-10-31T11:58:06.486Z,21.80
2022-10-31T12:06:18.953Z,22.00
2022-10-31T12:10:23.778Z,22.30
2022-10-31T12:14:33.031Z,22.50
2022-10-31T12:18:44.662Z,22.60
2022-10-31T12:22:53.200Z,22.60
2022-10-31T12:26:59.427Z,22.60
2022-10-31T12:31:05.323Z,22.70
2022-10-31T12:35:16.172Z,22.60
2022-10-31T12:39:25.658Z,22.60
2022-10-31T12:43:37.673Z,22.40
2022-10-31T12:47:45.261Z,22.30
2022-10-31T12:51:53.346Z,22.10
2022-10-31T12:56:02.221Z,22.00
2022-10-31T13:00:06.450Z,21.80
2022-10-31T13:04:14.551Z,21.70
2022-10-31T13:08:19.318Z,21.50
2022-10-31T13:12:24.789Z,21.40
2022-10-31T13:16:30.604Z,21.30
2022-10-31T13:20:35.177Z,21.20
2022-10-31T13:24:40.633Z,21.20
2022-10-31T13:28:47.050Z,21.10
2022-10-31T13:32:52.392Z,21.00
2022-10-31T13:37:00.045Z,20.90
2022-10-31T13:41:03.836Z,20.70
2022-10-31T13:45:15.123Z,20.70
2022-10-31T13:49:26.544Z,20.50
2022-10-31T13:53:37.792Z,20.50
2022-10-31T13:57:43.797Z,20.30
2022-10-31T14:01:52.198Z,20.20
2022-10-31T14:05:55.768Z,20.20
2022-10-31T14:10:01.030Z,20.00
2022-10-31T14:14:04.109Z,20.00
2022-10-31T14:18:19.162Z,19.90
2022-10-31T14:22:22.859Z,19.80
2022-10-31T14:26:33.782Z,19.70
2022-10-31T14:30:38.053Z,19.60
2022-10-31T14:34:43.289Z,19.50
2022-10-31T14:38:53.423Z,19.40
2022-10-31T14:43:13.972Z,19.40
2022-10-31T14:47:21.027Z,19.30
2022-10-31T14:51:27.319Z,19.20
2022-10-31T14:55:30.381Z,19.10
2022-10-31T14:59:35.288Z,19.10
2022-10-31T15:03:44.505Z,19.00
2022-10-31T15:07:57.666Z,18.90
2022-10-31T15:12:00.697Z,18.80
2022-10-31T15:16:03.550Z,18.70
2022-10-31T15:20:06.812Z,18.70
2022-10-31T15:24:16.745Z,18.60
2022-10-31T15:28:24.479Z,18.50
2022-10-31T15:32:28.137Z,18.40
2022-10-31T15:36:34.426Z,18.20
2022-10-31T15:40:40.153Z,18.20
2022-10-31T15:44:43.516Z,18.10
2022-10-31T15:48:47.065Z,18.00
2022-10-31T15:52:51.078Z,17.90
2022-10-31T15:56:55.389Z,17.90
2022-10-31T16:01:01.944Z,17.80
2022-10-31T16:05:17.481Z,17.70
2022-10-31T16:09:22.907Z,17.70
2022-10-31T16:13:28.876Z,17.60
2022-10-31T16:17:33.274Z,17.50
2022-10-31T16:21:37.813Z,17.50
2022-10-31T16:25:40.971Z,17.40
2022-10-31T16:29:45.995Z,17.40
2022-10-31T16:33:48.802Z,17.40
2022-10-31T16:37:51.750Z,17.40
2022-10-31T16:41:57.247Z,17.30
2022-10-31T16:46:01.544Z,17.30
2022-10-31T16:50:07.644Z,17.30
2022-10-31T16:54:11.864Z,17.20
2022-10-31T16:58:17.285Z,17.20
2022-10-31T17:02:21.848Z,17.20
2022-10-31T17:06:28.374Z,17.20
2022-10-31T17:10:31.373Z,17.10
2022-10-31T17:14:34.503Z,17.10
2022-10-31T17:18:38.739Z,17.10
2022-10-31T17:22:41.615Z,17.00
2022-10-31T17:26:44.466Z,17.00
2022-10-31T17:30:47.426Z,17.00
2022-10-31T17:34:51.648Z,17.00
2022-10-31T17:38:54.465Z,16.90
2022-10-31T17:42:58.865Z,16.90
2022-10-31T17:47:02.323Z,16.90
2022-10-31T17:51:07.225Z,16.80
2022-10-31T17:55:12.151Z,16.80
2022-10-31T17:59:15.196Z,16.80
2022-10-31T18:03:18.075Z,16.80
2022-10-31T18:07:22.330Z,16.70
2022-10-31T18:11:25.360Z,16.70
2022-10-31T18:15:28.219Z,16.70
2022-10-31T18:19:31.054Z,16.70
2022-10-31T18:23:35.274Z,16.60
2022-10-31T18:27:38.142Z,16.60
2022-10-31T18:31:41.047Z,16.60
2022-10-31T18:35:44.028Z,16.60
2022-10-31T18:39:48.250Z,16.50
2022-10-31T18:43:54.074Z,16.50
2022-10-31T18:47:56.958Z,16.40
2022-10-31T18:52:00.133Z,16.40
2022-10-31T18:56:07.867Z,16.40
2022-10-31T19:00:11.282Z,16.40
2022-10-31T19:04:14.185Z,16.30
2022-10-31T19:08:17.220Z,16.30
2022-10-31T19:12:21.490Z,16.30
2022-10-31T19:16:24.390Z,16.30
2022-10-31T19:20:27.401Z,16.20
2022-10-31T19:24:30.216Z,16.20
2022-10-31T19:28:34.950Z,16.10
2022-10-31T19:32:37.935Z,16.10
2022-10-31T19:36:40.801Z,16.10
2022-10-31T19:40:45.713Z,16.00
2022-10-31T19:44:49.911Z,16.00
2022-10-31T19:48:52.785Z,16.00
2022-10-31T19:52:55.774Z,16.00
2022-10-31T19:56:58.632Z,15.90
2022-10-31T20:01:06.954Z,15.90
2022-10-31T20:05:10.309Z,15.90
2022-10-31T20:09:14.850Z,15.80
2022-10-31T20:13:17.708Z,15.80
2022-10-31T20:17:21.966Z,15.80
2022-10-31T20:21:26.528Z,15.70
2022-10-31T20:25:31.734Z,15.70
2022-10-31T20:29:34.700Z,15.60
2022-10-31T20:33:39.238Z,15.50
2022-10-31T20:37:42.098Z,15.50
2022-10-31T20:41:44.967Z,15.50
2022-10-31T20:45:47.859Z,15.40
2022-10-31T20:49:52.062Z,15.40
2022-10-31T20:53:55.554Z,15.40
2022-10-31T20:57:58.535Z,15.40
2022-10-31T21:02:01.575Z,15.40
2022-10-31T21:06:06.244Z,15.50
2022-10-31T21:10:14.954Z,15.50
2022-10-31T21:14:21.015Z,15.50
2022-10-31T21:18:23.950Z,15.50
2022-10-31T21:22:31.265Z,15.50
2022-10-31T21:26:36.179Z,15.50
2022-10-31T21:30:41.353Z,15.40
2022-10-31T21:34:44.469Z,15.40
2022-10-31T21:38:52.449Z,15.30
2022-10-31T21:42:57.183Z,15.30
2022-10-31T21:47:00.072Z,15.20
2022-10-31T21:51:06.403Z,15.20
2022-10-31T21:55:11.463Z,15.10
2022-10-31T21:59:14.705Z,15.00
2022-10-31T22:03:17.622Z,15.00
2022-10-31T22:07:20.574Z,15.00
2022-10-31T22:11:28.081Z,14.90
2022-10-31T22:15:33.159Z,14.90
2022-10-31T22:19:36.291Z,14.90
2022-10-31T22:23:39.442Z,14.90
2022-10-31T22:27:43.742Z,14.90
2022-10-31T22:31:50.562Z,14.90
2022-10-31T22:35:57.075Z,14.90
2022-10-31T22:39:59.949Z,14.80
2022-10-31T22:44:05.190Z,14.80
2022-10-31T22:48:08.320Z,14.70
2022-10-31T22:52:11.178Z,14.70
2022-10-31T22:56:15.278Z,14.70
2022-10-31T23:00:20.189Z,14.60
2022-10-31T23:04:23.231Z,14.60
2022-10-31T23:08:26.400Z,14.50
2022-10-31T23:12:50.029Z,14.50
2022-10-31T23:16:55.347Z,14.50
2022-10-31T23:20:58.218Z,14.50
2022-10-31T23:25:01.821Z,14.40
2022-10-31T23:29:03.699Z,14.40
2022-10-31T23:33:07.936Z,14.40
2022-10-31T23:37:10.823Z,14.30
2022-10-31T23:41:13.734Z,14.30
2022-10-31T23:45:16.784Z,14.30
2022-10-31T23:49:21.021Z,14.30
2022-10-31T23:53:23.900Z,14.20
2022-10-31T23:57:27.780Z,14.20
